createdAt,value
2023-03-05T00:00:15.715Z,8.00
2023-03-05T00:02:43.200Z,8.00
2023-03-05T00:05:11.417Z,8.00
2023-03-05T00:07:38.697Z,8.00
2023-03-05T00:10:06.985Z,7.90
2023-03-05T00:12:34.269Z,7.90
2023-03-05T00:15:01.596Z,7.90
2023-03-05T00:17:29.753Z,7.90
2023-03-05T00:19:59.969Z,7.90
2023-03-05T00:22:28.128Z,8.00
2023-03-05T00:24:55.462Z,8.00
2023-03-05T00:27:22.797Z,7.90
2023-03-05T00:29:50.082Z,7.90
2023-03-05T00:32:17.515Z,7.80
2023-03-05T00:34:45.428Z,7.80
2023-03-05T00:37:12.725Z,7.80
2023-03-05T00:39:39.968Z,7.80
2023-03-05T00:42:07.821Z,7.80
2023-03-05T00:44:35.633Z,7.80
2023-03-05T00:47:03.057Z,7.80
2023-03-05T00:49:30.360Z,7.80
2023-03-05T00:51:57.564Z,7.80
2023-03-05T00:54:24.867Z,7.80
2023-03-05T00:56:52.165Z,7.80
2023-03-05T00:59:19.455Z,7.80
2023-03-05T01:01:46.773Z,7.80
2023-03-05T01:04:14.075Z,7.70
2023-03-05T01:06:44.842Z,7.80
2023-03-05T01:09:14.280Z,7.80
2023-03-05T01:11:41.669Z,7.80
2023-03-05T01:14:09.158Z,7.80
2023-03-05T01:16:36.401Z,7.80
2023-03-05T01:19:03.676Z,7.70
2023-03-05T01:21:30.971Z,7.60
2023-03-05T01:23:58.969Z,7.60
2023-03-05T01:26:26.354Z,7.60
2023-03-05T01:28:53.977Z,7.50
2023-03-05T01:31:21.408Z,7.50
2023-03-05T01:33:48.692Z,7.50
2023-03-05T01:36:16.900Z,7.40
2023-03-05T01:38:45.740Z,7.50
2023-03-05T01:41:15.474Z,7.40
2023-03-05T01:43:43.749Z,7.50
2023-03-05T01:46:29.795Z,7.50
2023-03-05T01:48:59.933Z,7.50
2023-03-05T01:51:31.787Z,7.40
2023-03-05T01:54:01.977Z,7.40
2023-03-05T01:56:30.800Z,7.40
2023-03-05T01:59:03.563Z,7.50
2023-03-05T02:01:42.567Z,7.50
2023-03-05T02:04:12.848Z,7.40
2023-03-05T02:06:42.480Z,7.50
2023-03-05T02:09:10.874Z,7.50
2023-03-05T02:11:38.836Z,7.40
2023-03-05T02:14:09.910Z,7.50
2023-03-05T02:16:38.494Z,7.40
2023-03-05T02:19:08.597Z,7.40
2023-03-05T02:21:43.276Z,7.30
2023-03-05T02:24:37.536Z,7.30
2023-03-05T02:27:05.983Z,7.30
2023-03-05T02:29:34.063Z,7.40
2023-03-05T02:32:01.906Z,7.40
2023-03-05T02:34:29.629Z,7.30
2023-03-05T02:36:57.120Z,7.30
2023-03-05T02:39:25.559Z,7.30
2023-03-05T02:41:53.937Z,7.30
2023-03-05T02:44:21.211Z,7.20
2023-03-05T02:46:48.683Z,7.20
2023-03-05T02:49:16.401Z,7.20
2023-03-05T02:51:43.628Z,7.20
2023-03-05T02:54:11.201Z,7.20
2023-03-05T02:56:39.557Z,7.10
2023-03-05T02:59:06.886Z,7.10
2023-03-05T03:01:34.961Z,7.10
2023-03-05T03:04:02.291Z,7.20
2023-03-05T03:06:29.604Z,7.10
2023-03-05T03:08:57.864Z,7.10
2023-03-05T03:11:25.187Z,7.10
2023-03-05T03:13:52.441Z,7.10
2023-03-05T03:16:19.981Z,7.10
2023-03-05T03:18:48.843Z,7.10
2023-03-05T03:21:22.261Z,7.10
2023-03-05T03:23:49.730Z,7.10
2023-03-05T03:26:17.405Z,7.10
2023-03-05T03:28:45.166Z,7.10
2023-03-05T03:31:12.499Z,7.10
2023-03-05T03:33:39.859Z,7.10
2023-03-05T03:36:07.825Z,7.10
2023-03-05T03:38:35.242Z,7.10
2023-03-05T03:41:03.711Z,7.10
2023-03-05T03:43:30.932Z,7.10
2023-03-05T03:45:58.273Z,7.10
2023-03-05T03:48:25.613Z,7.00
2023-03-05T03:50:52.842Z,7.00
2023-03-05T03:53:20.124Z,7.00
2023-03-05T03:55:47.551Z,7.00
2023-03-05T03:58:14.868Z,7.00
2023-03-05T04:00:42.588Z,6.90
2023-03-05T04:03:09.821Z,6.90
2023-03-05T04:05:37.146Z,6.90
2023-03-05T04:08:04.978Z,6.80
2023-03-05T04:10:32.252Z,6.70
2023-03-05T04:12:59.564Z,6.70
2023-03-05T04:15:30.405Z,6.70
2023-03-05T04:17:57.650Z,6.70
2023-03-05T04:20:25.027Z,6.60
2023-03-05T04:22:52.516Z,6.50
2023-03-05T04:25:19.733Z,6.50
2023-03-05T04:27:50.393Z,6.40
2023-03-05T04:30:17.800Z,6.50
2023-03-05T04:32:45.122Z,6.50
2023-03-05T04:35:12.414Z,6.50
2023-03-05T04:37:39.632Z,6.50
2023-03-05T04:40:07.814Z,6.50
2023-03-05T04:42:35.131Z,6.50
2023-03-05T04:45:02.709Z,6.50
2023-03-05T04:47:30.094Z,6.50
2023-03-05T04:49:57.336Z,6.50
2023-03-05T04:52:24.775Z,6.50
2023-03-05T04:54:52.095Z,6.50
2023-03-05T04:57:19.415Z,6.50
2023-03-05T04:59:46.706Z,6.50
2023-03-05T05:02:13.966Z,6.50
2023-03-05T05:04:44.968Z,6.40
2023-03-05T05:07:12.585Z,6.40
2023-03-05T05:09:41.512Z,6.40
2023-03-05T05:12:10.395Z,6.40
2023-03-05T05:14:37.903Z,6.30
2023-03-05T05:17:05.338Z,6.20
2023-03-05T05:19:34.736Z,6.30
2023-03-05T05:22:02.304Z,6.20
2023-03-05T05:24:29.746Z,6.10
2023-03-05T05:26:57.206Z,6.10
2023-03-05T05:29:24.811Z,6.00
2023-03-05T05:31:54.101Z,6.00
2023-03-05T05:34:21.460Z,5.90
2023-03-05T05:36:48.710Z,5.90
2023-03-05T05:39:15.931Z,5.90
2023-03-05T05:41:43.194Z,5.90
2023-03-05T05:44:10.596Z,6.00
2023-03-05T05:46:37.918Z,6.00
2023-03-05T05:49:05.376Z,6.00
2023-03-05T05:51:32.613Z,6.00
2023-03-05T05:54:00.054Z,6.00
2023-03-05T05:56:27.970Z,6.00
2023-03-05T05:58:55.545Z,6.00
2023-03-05T06:01:30.524Z,6.10
2023-03-05T06:03:58.595Z,6.10
2023-03-05T06:06:27.111Z,6.10
2023-03-05T06:08:55.485Z,6.20
2023-03-05T06:11:23.082Z,6.20
2023-03-05T06:13:50.663Z,6.30
2023-03-05T06:16:21.148Z,6.30
2023-03-05T06:18:48.566Z,6.30
2023-03-05T06:21:18.194Z,6.40
2023-03-05T06:23:46.786Z,6.60
2023-03-05T06:26:17.301Z,6.80
2023-03-05T06:28:45.126Z,6.90
2023-03-05T06:31:15.459Z,7.10
2023-03-05T06:33:44.019Z,7.20
2023-03-05T06:36:16.805Z,7.40
2023-03-05T06:38:44.514Z,7.60
2023-03-05T06:41:17.973Z,7.60
2023-03-05T06:43:46.912Z,7.80
2023-03-05T06:46:17.527Z,7.90
2023-03-05T06:48:45.749Z,8.00
2023-03-05T06:51:22.122Z,8.10
2023-03-05T06:53:49.743Z,8.30
2023-03-05T06:56:18.036Z,8.50
2023-03-05T06:58:47.990Z,8.70
2023-03-05T07:01:16.198Z,8.90
2023-03-05T07:03:43.762Z,8.90
2023-03-05T07:06:13.899Z,8.90
2023-03-05T07:08:44.676Z,8.90
2023-03-05T07:11:14.304Z,8.80
2023-03-05T07:13:42.004Z,8.90
2023-03-05T07:16:13.451Z,9.20
2023-03-05T07:18:40.769Z,9.50
2023-03-05T07:21:09.572Z,9.80
2023-03-05T07:23:36.939Z,10.10
2023-03-05T07:26:06.227Z,10.20
2023-03-05T07:28:34.298Z,10.40
2023-03-05T07:31:05.225Z,10.60
2023-03-05T07:33:33.674Z,11.00
2023-03-05T07:36:01.610Z,11.30
2023-03-05T07:38:28.884Z,11.50
2023-03-05T07:40:56.134Z,11.30
2023-03-05T07:43:23.378Z,11.50
2023-03-05T07:45:50.863Z,11.80
2023-03-05T07:48:20.963Z,12.10
2023-03-05T07:50:48.862Z,12.30
2023-03-05T07:53:16.268Z,12.50
2023-03-05T07:55:47.443Z,12.50
2023-03-05T07:58:15.006Z,12.50
2023-03-05T08:00:42.540Z,12.70
2023-03-05T08:03:09.797Z,12.70
2023-03-05T08:05:40.321Z,12.70
2023-03-05T08:08:08.363Z,13.10
2023-03-05T08:10:37.152Z,13.30
2023-03-05T08:13:05.148Z,13.50
2023-03-05T08:15:32.514Z,13.80
2023-03-05T08:18:00.377Z,14.00
2023-03-05T08:20:27.609Z,14.00
2023-03-05T08:22:54.877Z,14.20
2023-03-05T08:25:22.457Z,14.20
2023-03-05T08:27:49.724Z,14.60
2023-03-05T08:30:20.350Z,14.80
2023-03-05T08:32:49.555Z,15.00
2023-03-05T08:35:16.893Z,15.30
2023-03-05T08:37:44.251Z,15.50
2023-03-05T08:40:12.473Z,15.30
2023-03-05T08:42:39.748Z,15.40
2023-03-05T08:45:07.828Z,15.30
2023-03-05T08:47:35.158Z,15.00
2023-03-05T08:50:02.372Z,15.00
2023-03-05T08:52:29.777Z,14.90
2023-03-05T08:54:57.205Z,15.10
2023-03-05T08:57:24.421Z,15.60
2023-03-05T08:59:51.729Z,15.40
2023-03-05T09:02:18.955Z,15.40
2023-03-05T09:04:46.259Z,15.30
2023-03-05T09:07:13.545Z,15.00
2023-03-05T09:09:40.892Z,15.20
2023-03-05T09:12:12.073Z,15.20
2023-03-05T09:14:40.705Z,15.30
2023-03-05T09:17:09.027Z,15.30
2023-03-05T09:19:36.324Z,15.40
2023-03-05T09:22:03.690Z,15.50
2023-03-05T09:24:30.964Z,15.60
2023-03-05T09:27:00.304Z,15.80
2023-03-05T09:29:28.682Z,15.70
2023-03-05T09:31:55.991Z,15.60
2023-03-05T09:34:24.050Z,15.90
2023-03-05T09:36:51.330Z,15.90
2023-03-05T09:39:18.602Z,15.90
2023-03-05T09:42:32.009Z,16.20
2023-03-05T09:45:22.396Z,16.10
2023-03-05T09:48:16.773Z,16.00
2023-03-05T09:50:58.685Z,15.80
2023-03-05T09:53:36.848Z,15.70
2023-03-05T09:56:12.498Z,15.90
2023-03-05T09:58:49.554Z,16.10
2023-03-05T10:01:27.022Z,16.20
2023-03-05T10:04:04.024Z,16.30
2023-03-05T10:06:36.623Z,16.50
2023-03-05T10:09:09.951Z,16.30
2023-03-05T10:11:43.406Z,16.60
2023-03-05T10:14:16.087Z,16.60
2023-03-05T10:16:55.570Z,16.50
2023-03-05T10:19:44.312Z,16.50
2023-03-05T10:22:29.660Z,16.70
2023-03-05T10:25:06.065Z,16.80
2023-03-05T10:27:42.133Z,16.60
2023-03-05T10:30:26.892Z,16.40
2023-03-05T10:33:12.448Z,16.10
2023-03-05T10:35:48.898Z,16.00
2023-03-05T10:38:22.663Z,15.80
2023-03-05T10:40:54.489Z,16.10
2023-03-05T10:43:48.168Z,16.60
2023-03-05T10:46:22.187Z,16.70
2023-03-05T10:48:59.614Z,16.80
2023-03-05T10:51:41.081Z,16.80
2023-03-05T10:54:31.759Z,16.70
2023-03-05T10:57:14.164Z,16.60
2023-03-05T10:59:55.249Z,16.20
2023-03-05T11:02:23.163Z,16.20
2023-03-05T11:04:52.190Z,16.20
2023-03-05T11:07:19.415Z,16.40
2023-03-05T11:10:16.113Z,16.50
2023-03-05T11:12:44.993Z,16.70
2023-03-05T11:15:12.156Z,16.70
2023-03-05T11:17:49.186Z,16.70
2023-03-05T11:20:34.625Z,16.70
2023-03-05T11:23:24.218Z,16.80
2023-03-05T11:26:02.494Z,16.60
2023-03-05T11:28:39.522Z,16.60
2023-03-05T11:31:18.211Z,16.50
2023-03-05T11:34:04.557Z,16.40
2023-03-05T11:36:39.935Z,15.90
2023-03-05T11:39:10.164Z,15.90
2023-03-05T11:41:50.381Z,16.00
2023-03-05T11:44:45.037Z,16.10
2023-03-05T11:47:18.423Z,16.30
2023-03-05T11:49:50.089Z,16.10
2023-03-05T11:52:34.037Z,16.00
2023-03-05T11:55:13.346Z,16.00
2023-03-05T11:57:49.689Z,15.80
2023-03-05T12:00:23.826Z,16.00
2023-03-05T12:02:56.254Z,16.00
2023-03-05T12:05:23.734Z,16.00
2023-03-05T12:07:55.178Z,16.10
2023-03-05T12:10:24.882Z,15.90
2023-03-05T12:13:04.140Z,15.70
2023-03-05T12:16:12.501Z,15.70
2023-03-05T12:18:58.430Z,15.80
2023-03-05T12:21:38.044Z,15.90
2023-03-05T12:24:24.839Z,16.00
2023-03-05T12:26:55.953Z,15.90
2023-03-05T12:29:49.018Z,15.80
2023-03-05T12:32:22.784Z,15.90
2023-03-05T12:34:58.160Z,15.80
2023-03-05T12:37:25.661Z,15.90
2023-03-05T12:40:23.319Z,15.80
2023-03-05T12:43:15.443Z,15.70
2023-03-05T12:45:42.998Z,15.70
2023-03-05T12:48:12.371Z,15.80
2023-03-05T12:50:39.790Z,15.90
2023-03-05T12:53:07.085Z,15.80
2023-03-05T12:55:40.745Z,15.90
2023-03-05T12:58:17.019Z,16.00
2023-03-05T13:00:52.028Z,15.90
2023-03-05T13:03:30.824Z,16.00
2023-03-05T13:06:00.498Z,16.00
2023-03-05T13:08:35.287Z,15.90
2023-03-05T13:11:08.716Z,15.70
2023-03-05T13:13:41.725Z,15.70
2023-03-05T13:16:23.888Z,15.70
2023-03-05T13:18:53.112Z,15.50
2023-03-05T13:21:26.593Z,15.40
2023-03-05T13:23:58.919Z,15.50
2023-03-05T13:26:36.547Z,15.60
2023-03-05T13:29:13.485Z,15.70
2023-03-05T13:31:46.544Z,15.80
2023-03-05T13:34:23.320Z,15.90
2023-03-05T13:37:01.846Z,16.00
2023-03-05T13:39:33.901Z,16.00
2023-03-05T13:42:26.574Z,16.00
2023-03-05T13:44:59.348Z,16.00
2023-03-05T13:47:32.679Z,15.90
2023-03-05T13:50:05.990Z,15.70
2023-03-05T13:52:36.179Z,15.70
2023-03-05T13:55:12.395Z,15.80
2023-03-05T13:57:44.034Z,15.80
2023-03-05T14:00:38.982Z,15.90
2023-03-05T14:03:34.646Z,15.90
2023-03-05T14:06:09.499Z,15.90
2023-03-05T14:08:36.911Z,15.70
2023-03-05T14:11:15.389Z,15.70
2023-03-05T14:13:43.529Z,15.60
2023-03-05T14:16:12.697Z,15.50
2023-03-05T14:18:54.559Z,15.30
2023-03-05T14:21:21.864Z,15.30
2023-03-05T14:23:52.966Z,15.40
2023-03-05T14:26:33.453Z,15.50
2023-03-05T14:29:03.697Z,15.40
2023-03-05T14:31:54.574Z,15.50
2023-03-05T14:34:31.111Z,15.60
2023-03-05T14:37:04.059Z,15.60
2023-03-05T14:39:52.814Z,15.60
2023-03-05T14:42:38.412Z,15.60
2023-03-05T14:45:16.654Z,15.60
2023-03-05T14:47:44.676Z,15.50
2023-03-05T14:50:37.081Z,15.50
2023-03-05T14:53:15.605Z,15.60
2023-03-05T14:55:43.710Z,15.60
2023-03-05T14:58:14.453Z,15.70
2023-03-05T15:00:42.951Z,15.70
2023-03-05T15:03:17.289Z,15.60
2023-03-05T15:05:47.877Z,15.50
2023-03-05T15:08:20.267Z,15.60
2023-03-05T15:10:48.447Z,15.60
2023-03-05T15:13:16.864Z,15.50
2023-03-05T15:15:45.974Z,15.50
2023-03-05T15:18:14.572Z,15.40
2023-03-05T15:20:42.546Z,15.50
2023-03-05T15:23:10.461Z,15.40
2023-03-05T15:25:37.695Z,15.40
2023-03-05T15:28:05.569Z,15.30
2023-03-05T15:30:40.886Z,15.40
2023-03-05T15:33:11.367Z,15.40
2023-03-05T15:35:38.885Z,15.40
2023-03-05T15:38:06.321Z,15.40
2023-03-05T15:40:33.812Z,15.30
2023-03-05T15:43:01.472Z,15.40
2023-03-05T15:45:31.329Z,15.40
2023-03-05T15:47:58.903Z,15.40
2023-03-05T15:50:26.386Z,15.30
2023-03-05T15:52:53.803Z,15.20
2023-03-05T15:55:21.690Z,15.10
2023-03-05T15:57:50.456Z,15.10
2023-03-05T16:00:23.817Z,15.10
2023-03-05T16:02:53.022Z,15.10
2023-03-05T16:05:20.474Z,15.10
2023-03-05T16:07:51.757Z,15.10
2023-03-05T16:10:23.968Z,15.10
2023-03-05T16:12:54.392Z,15.10
2023-03-05T16:15:22.501Z,15.10
2023-03-05T16:17:54.948Z,15.10
2023-03-05T16:20:22.885Z,15.00
2023-03-05T16:22:50.522Z,14.80
2023-03-05T16:25:17.953Z,14.80
2023-03-05T16:27:45.463Z,14.70
2023-03-05T16:30:15.108Z,14.70
2023-03-05T16:32:43.002Z,14.70
2023-03-05T16:35:12.517Z,14.70
2023-03-05T16:37:41.039Z,14.60
2023-03-05T16:40:11.137Z,14.60
2023-03-05T16:42:38.574Z,14.60
2023-03-05T16:45:07.359Z,14.60
2023-03-05T16:47:34.982Z,14.50
2023-03-05T16:50:02.405Z,14.40
2023-03-05T16:52:29.879Z,14.30
2023-03-05T16:54:57.141Z,14.20
2023-03-05T16:57:25.590Z,14.20
2023-03-05T16:59:54.127Z,14.20
2023-03-05T17:02:22.208Z,14.20
2023-03-05T17:04:50.376Z,14.10
2023-03-05T17:07:18.610Z,14.10
2023-03-05T17:09:47.958Z,14.10
2023-03-05T17:12:15.476Z,14.10
2023-03-05T17:14:42.882Z,14.20
2023-03-05T17:17:10.737Z,14.20
2023-03-05T17:19:38.512Z,14.10
2023-03-05T17:22:06.124Z,14.10
2023-03-05T17:24:33.954Z,14.00
2023-03-05T17:27:01.381Z,13.80
2023-03-05T17:29:30.518Z,13.70
2023-03-05T17:31:57.846Z,13.60
2023-03-05T17:34:35.489Z,13.60
2023-03-05T17:37:04.927Z,13.60
2023-03-05T17:39:32.645Z,13.60
2023-03-05T17:42:00.326Z,13.50
2023-03-05T17:44:27.617Z,13.40
2023-03-05T17:46:54.881Z,13.30
2023-03-05T17:49:22.293Z,13.30
2023-03-05T17:51:49.652Z,13.20
2023-03-05T17:54:16.976Z,13.20
2023-03-05T17:56:44.737Z,13.20
2023-03-05T17:59:12.053Z,13.20
2023-03-05T18:01:39.297Z,13.10
2023-03-05T18:04:06.730Z,13.10
2023-03-05T18:06:34.096Z,13.00
2023-03-05T18:09:01.492Z,12.80
2023-03-05T18:11:30.815Z,12.70
2023-03-05T18:13:58.529Z,12.50
2023-03-05T18:16:26.681Z,12.40
2023-03-05T18:18:54.637Z,12.30
2023-03-05T18:21:24.220Z,12.20
2023-03-05T18:23:52.070Z,12.20
2023-03-05T18:26:19.408Z,12.20
2023-03-05T18:28:47.149Z,12.20
2023-03-05T18:31:14.580Z,12.30
2023-03-05T18:33:42.983Z,12.30
2023-03-05T18:36:11.862Z,12.20
2023-03-05T18:38:39.231Z,12.10
2023-03-05T18:41:08.002Z,12.00
2023-03-05T18:43:36.785Z,11.90
2023-03-05T18:46:05.114Z,11.80
2023-03-05T18:48:32.500Z,11.80
2023-03-05T18:51:01.845Z,11.80
2023-03-05T18:53:29.802Z,11.80
2023-03-05T18:55:57.199Z,11.80
2023-03-05T18:58:26.042Z,11.70
2023-03-05T19:00:53.725Z,11.70
2023-03-05T19:03:22.923Z,11.70
2023-03-05T19:05:51.384Z,11.60
2023-03-05T19:08:19.068Z,11.50
2023-03-05T19:10:46.973Z,11.50
2023-03-05T19:13:43.828Z,11.60
2023-03-05T19:16:16.864Z,11.50
2023-03-05T19:19:23.768Z,11.50
2023-03-05T19:21:54.181Z,11.40
2023-03-05T19:24:23.386Z,11.30
2023-03-05T19:26:55.087Z,11.30
2023-03-05T19:29:23.924Z,11.30
2023-03-05T19:31:52.580Z,11.40
2023-03-05T19:34:20.697Z,11.40
2023-03-05T19:36:48.118Z,11.40
2023-03-05T19:39:15.605Z,11.50
2023-03-05T19:41:43.280Z,11.50
2023-03-05T19:44:11.861Z,11.40
2023-03-05T19:46:41.675Z,11.30
2023-03-05T19:49:10.121Z,11.30
2023-03-05T19:51:39.803Z,11.40
2023-03-05T19:54:07.159Z,11.40
2023-03-05T19:56:37.924Z,11.50
2023-03-05T19:59:05.842Z,11.60
2023-03-05T20:01:34.144Z,11.70
2023-03-05T20:04:04.111Z,11.80
2023-03-05T20:06:32.611Z,11.60
2023-03-05T20:09:00.221Z,11.40
2023-03-05T20:11:28.548Z,11.30
2023-03-05T20:13:56.676Z,11.20
2023-03-05T20:16:27.385Z,11.20
2023-03-05T20:18:56.141Z,11.20
2023-03-05T20:21:29.181Z,11.10
2023-03-05T20:24:05.628Z,11.10
2023-03-05T20:26:36.030Z,11.00
2023-03-05T20:29:04.940Z,11.00
2023-03-05T20:31:35.283Z,10.90
2023-03-05T20:34:08.995Z,10.90
2023-03-05T20:36:37.080Z,10.80
2023-03-05T20:39:05.895Z,10.80
2023-03-05T20:41:35.479Z,10.90
2023-03-05T20:44:03.402Z,10.90
2023-03-05T20:46:33.864Z,10.90
2023-03-05T20:49:02.404Z,10.90
2023-03-05T20:51:31.141Z,10.90
2023-03-05T20:54:02.595Z,10.90
2023-03-05T20:56:32.462Z,10.90
2023-03-05T20:59:03.824Z,10.90
2023-03-05T21:01:33.386Z,10.90
2023-03-05T21:04:01.639Z,10.90
2023-03-05T21:06:31.058Z,11.00
2023-03-05T21:08:59.252Z,10.90
2023-03-05T21:11:28.044Z,10.80
2023-03-05T21:13:55.347Z,10.80
2023-03-05T21:16:25.766Z,10.80
2023-03-05T21:18:53.867Z,10.80
2023-03-05T21:21:21.217Z,10.80
2023-03-05T21:23:48.476Z,10.80
2023-03-05T21:26:15.784Z,10.80
2023-03-05T21:28:43.128Z,10.80
2023-03-05T21:31:22.266Z,10.90
2023-03-05T21:33:49.949Z,10.80
2023-03-05T21:36:19.195Z,10.90
2023-03-05T21:38:48.297Z,10.80
2023-03-05T21:41:18.085Z,10.80
2023-03-05T21:43:45.655Z,10.80
2023-03-05T21:46:14.965Z,10.80
2023-03-05T21:48:42.261Z,10.80
2023-03-05T21:52:10.895Z,10.70
2023-03-05T21:54:44.770Z,10.70
2023-03-05T21:57:12.214Z,10.80
2023-03-05T21:59:42.528Z,10.70
2023-03-05T22:02:16.055Z,10.70
2023-03-05T22:04:43.914Z,10.70
2023-03-05T22:07:11.887Z,10.70
2023-03-05T22:09:39.442Z,10.60
2023-03-05T22:13:08.844Z,10.60
2023-03-05T22:15:46.253Z,10.60
2023-03-05T22:18:19.834Z,10.60
2023-03-05T22:20:47.864Z,10.60
2023-03-05T22:23:19.374Z,10.60
2023-03-05T22:25:54.746Z,10.60
2023-03-05T22:31:23.510Z,10.60
2023-03-05T22:33:50.864Z,10.60
2023-03-05T22:36:18.744Z,10.50
2023-03-05T22:38:46.755Z,10.50
2023-03-05T22:41:16.627Z,10.50
2023-03-05T22:43:43.900Z,10.40
2023-03-05T22:46:16.136Z,10.40
2023-03-05T22:48:44.062Z,10.30
2023-03-05T22:51:11.759Z,10.30
2023-03-05T22:53:39.856Z,10.30
2023-03-05T22:56:09.770Z,10.30
2023-03-05T22:58:38.006Z,10.20
2023-03-05T23:01:24.993Z,10.20
2023-03-05T23:04:53.059Z,10.20
2023-03-05T23:07:23.579Z,10.10
2023-03-05T23:10:01.312Z,10.20
2023-03-05T23:12:31.927Z,10.00
2023-03-05T23:15:01.264Z,10.00
2023-03-05T23:18:45.552Z,9.90
2023-03-05T23:21:38.568Z,9.90
2023-03-05T23:24:06.476Z,9.90
2023-03-05T23:26:33.802Z,9.90
2023-03-05T23:29:01.003Z,9.90
2023-03-05T23:31:28.668Z,9.80
2023-03-05T23:33:56.210Z,9.80
2023-03-05T23:36:25.494Z,9.80
2023-03-05T23:38:57.421Z,9.70
2023-03-05T23:41:25.238Z,9.70
2023-03-05T23:43:52.648Z,9.60
2023-03-05T23:46:20.148Z,9.60
2023-03-05T23:48:47.678Z,9.60
2023-03-05T23:51:15.630Z,9.70
2023-03-05T23:53:44.239Z,9.60
2023-03-05T23:56:12.467Z,9.60
2023-03-05T23:58:40.023Z,9.50
